sensor_id;sensor_type;location;lat;lon;timestamp;pressure;altitude;pressure_sealevel;temperature;humidity
73700;BME280;62005;50.082;8.988;2024-03-22T00:01:46;101256.00;;;9.89;93.91
73700;BME280;62005;50.082;8.988;2024-03-22T00:04:15;101253.03;;;9.84;93.17
73700;BME280;62005;50.082;8.988;2024-03-22T00:06:41;101238.00;;;9.75;93.88
73700;BME280;62005;50.082;8.988;2024-03-22T00:09:07;101248.03;;;9.81;94.93
73700;BME280;62005;50.082;8.988;2024-03-22T00:11:33;101248.44;;;9.78;94.58
73700;BME280;62005;50.082;8.988;2024-03-22T00:13:58;101236.78;;;9.78;94.76
73700;BME280;62005;50.082;8.988;2024-03-22T00:16:24;101228.00;;;9.69;94.03
73700;BME280;62005;50.082;8.988;2024-03-22T00:18:49;101235.91;;;9.71;94.31
73700;BME280;62005;50.082;8.988;2024-03-22T00:21:15;101239.69;;;9.76;93.15
73700;BME280;62005;50.082;8.988;2024-03-22T00:23:41;101233.59;;;9.68;93.27
73700;BME280;62005;50.082;8.988;2024-03-22T00:26:07;101236.75;;;9.71;93.41
73700;BME280;62005;50.082;8.988;2024-03-22T00:28:32;101233.81;;;9.66;93.44
73700;BME280;62005;50.082;8.988;2024-03-22T00:30:58;101223.78;;;9.60;93.54
73700;BME280;62005;50.082;8.988;2024-03-22T00:33:24;101234.19;;;9.63;93.29
73700;BME280;62005;50.082;8.988;2024-03-22T00:35:49;101232.91;;;9.59;93.25
73700;BME280;62005;50.082;8.988;2024-03-22T00:38:14;101224.56;;;9.54;93.26
73700;BME280;62005;50.082;8.988;2024-03-22T00:40:40;101227.84;;;9.50;93.61
73700;BME280;62005;50.082;8.988;2024-03-22T00:43:06;101213.00;;;9.39;93.31
73700;BME280;62005;50.082;8.988;2024-03-22T00:45:31;101200.31;;;9.33;93.55
73700;BME280;62005;50.082;8.988;2024-03-22T00:47:57;101222.41;;;9.43;94.25
73700;BME280;62005;50.082;8.988;2024-03-22T00:50:23;101206.53;;;9.34;94.88
73700;BME280;62005;50.082;8.988;2024-03-22T00:52:50;101212.56;;;9.36;94.51
73700;BME280;62005;50.082;8.988;2024-03-22T00:55:16;101210.66;;;9.30;94.53
73700;BME280;62005;50.082;8.988;2024-03-22T00:57:42;101209.78;;;9.29;95.01
73700;BME280;62005;50.082;8.988;2024-03-22T01:00:08;101190.66;;;9.24;94.85
73700;BME280;62005;50.082;8.988;2024-03-22T01:02:33;101201.09;;;9.27;94.86
73700;BME280;62005;50.082;8.988;2024-03-22T01:04:59;101199.78;;;9.23;95.34
73700;BME280;62005;50.082;8.988;2024-03-22T01:07:24;101200.19;;;9.20;95.76
73700;BME280;62005;50.082;8.988;2024-03-22T01:09:49;101192.50;;;9.17;96.06
73700;BME280;62005;50.082;8.988;2024-03-22T01:12:15;101184.75;;;9.14;96.34
73700;BME280;62005;50.082;8.988;2024-03-22T01:14:40;101174.09;;;9.06;96.15
73700;BME280;62005;50.082;8.988;2024-03-22T01:17:06;101171.41;;;9.06;96.59
73700;BME280;62005;50.082;8.988;2024-03-22T01:19:31;101154.34;;;8.99;96.26
73700;BME280;62005;50.082;8.988;2024-03-22T01:21:57;101152.66;;;8.98;96.70
73700;BME280;62005;50.082;8.988;2024-03-22T01:24:22;101150.16;;;8.96;96.87
73700;BME280;62005;50.082;8.988;2024-03-22T01:26:48;101152.22;;;8.94;96.44
73700;BME280;62005;50.082;8.988;2024-03-22T01:29:13;101154.72;;;8.96;96.98
73700;BME280;62005;50.082;8.988;2024-03-22T01:31:39;101158.19;;;8.90;97.08
73700;BME280;62005;50.082;8.988;2024-03-22T01:34:04;101153.19;;;8.87;97.87
73700;BME280;62005;50.082;8.988;2024-03-22T01:36:30;101144.47;;;8.85;97.55
73700;BME280;62005;50.082;8.988;2024-03-22T01:38:56;101134.75;;;8.69;97.13
73700;BME280;62005;50.082;8.988;2024-03-22T01:41:21;101154.97;;;8.80;96.45
73700;BME280;62005;50.082;8.988;2024-03-22T01:43:47;101160.38;;;8.80;97.10
73700;BME280;62005;50.082;8.988;2024-03-22T01:46:12;101157.41;;;8.75;97.07
73700;BME280;62005;50.082;8.988;2024-03-22T01:48:37;101158.19;;;8.69;97.16
73700;BME280;62005;50.082;8.988;2024-03-22T01:51:04;101165.44;;;8.68;96.83
73700;BME280;62005;50.082;8.988;2024-03-22T01:53:30;101148.94;;;8.57;96.94
73700;BME280;62005;50.082;8.988;2024-03-22T01:55:56;101166.41;;;8.61;97.48
73700;BME280;62005;50.082;8.988;2024-03-22T01:58:22;101167.59;;;8.58;96.74
73700;BME280;62005;50.082;8.988;2024-03-22T02:00:48;101163.44;;;8.56;96.73
73700;BME280;62005;50.082;8.988;2024-03-22T02:03:14;101155.09;;;8.51;97.28
73700;BME280;62005;50.082;8.988;2024-03-22T02:05:39;101150.09;;;8.48;97.17
73700;BME280;62005;50.082;8.988;2024-03-22T02:08:05;101148.78;;;8.44;96.54
73700;BME280;62005;50.082;8.988;2024-03-22T02:10:31;101148.25;;;8.34;97.03
73700;BME280;62005;50.082;8.988;2024-03-22T02:12:56;101153.63;;;8.34;96.47
73700;BME280;62005;50.082;8.988;2024-03-22T02:15:22;101145.28;;;8.29;97.39
73700;BME280;62005;50.082;8.988;2024-03-22T02:17:47;101142.31;;;8.24;97.21
73700;BME280;62005;50.082;8.988;2024-03-22T02:20:13;101138.94;;;8.22;97.84
73700;BME280;62005;50.082;8.988;2024-03-22T02:22:38;101138.31;;;8.20;97.28
73700;BME280;62005;50.082;8.988;2024-03-22T02:25:07;101135.16;;;8.16;97.00
73700;BME280;62005;50.082;8.988;2024-03-22T02:27:34;101115.59;;;8.08;96.08
73700;BME280;62005;50.082;8.988;2024-03-22T02:29:59;101123.94;;;8.13;97.62
73700;BME280;62005;50.082;8.988;2024-03-22T02:32:25;101106.84;;;8.06;97.88
73700;BME280;62005;50.082;8.988;2024-03-22T02:34:50;101103.97;;;8.07;97.44
73700;BME280;62005;50.082;8.988;2024-03-22T02:37:15;101093.78;;;8.03;98.11
73700;BME280;62005;50.082;8.988;2024-03-22T02:39:41;101097.22;;;7.97;98.71
73700;BME280;62005;50.082;8.988;2024-03-22T02:42:07;101106.78;;;7.99;97.69
73700;BME280;62005;50.082;8.988;2024-03-22T02:44:32;101101.56;;;7.97;98.29
73700;BME280;62005;50.082;8.988;2024-03-22T02:46:58;101110.94;;;8.02;98.59
73700;BME280;62005;50.082;8.988;2024-03-22T02:49:25;101108.00;;;7.97;99.85
73700;BME280;62005;50.082;8.988;2024-03-22T02:51:51;101091.28;;;7.86;98.96
73700;BME280;62005;50.082;8.988;2024-03-22T02:54:16;101098.34;;;7.87;99.19
73700;BME280;62005;50.082;8.988;2024-03-22T02:56:42;101115.78;;;7.91;99.58
73700;BME280;62005;50.082;8.988;2024-03-22T02:59:07;101103.72;;;7.87;99.32
73700;BME280;62005;50.082;8.988;2024-03-22T03:01:33;101111.78;;;7.87;98.29
73700;BME280;62005;50.082;8.988;2024-03-22T03:03:58;101097.41;;;7.80;98.45
73700;BME280;62005;50.082;8.988;2024-03-22T03:06:24;101106.50;;;7.79;98.21
73700;BME280;62005;50.082;8.988;2024-03-22T03:08:49;101105.19;;;7.75;98.72
73700;BME280;62005;50.082;8.988;2024-03-22T03:11:15;101093.25;;;7.63;98.76
73700;BME280;62005;50.082;8.988;2024-03-22T03:13:41;101104.66;;;7.65;99.66
73700;BME280;62005;50.082;8.988;2024-03-22T03:16:07;101106.88;;;7.62;99.55
73700;BME280;62005;50.082;8.988;2024-03-22T03:18:32;101093.72;;;7.52;98.64
73700;BME280;62005;50.082;8.988;2024-03-22T03:20:57;101095.41;;;7.53;98.42
73700;BME280;62005;50.082;8.988;2024-03-22T03:23:23;101085.34;;;7.47;99.69
73700;BME280;62005;50.082;8.988;2024-03-22T03:25:48;101096.13;;;7.47;99.50
73700;BME280;62005;50.082;8.988;2024-03-22T03:28:14;101093.59;;;7.46;99.45
73700;BME280;62005;50.082;8.988;2024-03-22T03:30:39;101085.63;;;7.38;99.52
73700;BME280;62005;50.082;8.988;2024-03-22T03:33:05;101092.84;;;7.37;99.43
73700;BME280;62005;50.082;8.988;2024-03-22T03:35:30;101088.50;;;7.36;100.00
73700;BME280;62005;50.082;8.988;2024-03-22T03:37:56;101085.16;;;7.34;100.00
73700;BME280;62005;50.082;8.988;2024-03-22T03:40:22;101087.19;;;7.32;100.00
73700;BME280;62005;50.082;8.988;2024-03-22T03:42:50;101085.53;;;7.31;100.00
73700;BME280;62005;50.082;8.988;2024-03-22T03:45:15;101092.56;;;7.32;100.00
73700;BME280;62005;50.082;8.988;2024-03-22T03:47:41;101070.06;;;7.19;100.00
73700;BME280;62005;50.082;8.988;2024-03-22T03:50:07;101069.69;;;7.22;100.00
73700;BME280;62005;50.082;8.988;2024-03-22T03:52:33;101063.47;;;7.21;100.00
73700;BME280;62005;50.082;8.988;2024-03-22T03:54:58;101060.47;;;7.16;100.00
73700;BME280;62005;50.082;8.988;2024-03-22T03:57:24;101072.19;;;7.23;100.00
73700;BME280;62005;50.082;8.988;2024-03-22T03:59:49;101068.84;;;7.21;99.99
73700;BME280;62005;50.082;8.988;2024-03-22T04:02:15;101071.91;;;7.18;99.90
73700;BME280;62005;50.082;8.988;2024-03-22T04:04:40;101061.81;;;7.20;100.00
73700;BME280;62005;50.082;8.988;2024-03-22T04:07:06;101066.34;;;7.20;100.00
73700;BME280;62005;50.082;8.988;2024-03-22T04:09:31;101054.16;;;7.09;100.00
73700;BME280;62005;50.082;8.988;2024-03-22T04:11:57;101062.16;;;7.17;100.00
73700;BME280;62005;50.082;8.988;2024-03-22T04:14:24;101060.84;;;7.13;100.00
73700;BME280;62005;50.082;8.988;2024-03-22T04:16:50;101044.25;;;7.10;100.00
73700;BME280;62005;50.082;8.988;2024-03-22T04:19:16;101050.09;;;7.13;100.00
73700;BME280;62005;50.082;8.988;2024-03-22T04:21:41;101044.72;;;7.13;100.00
73700;BME280;62005;50.082;8.988;2024-03-22T04:24:06;101046.56;;;7.13;100.00
73700;BME280;62005;50.082;8.988;2024-03-22T04:26:32;101044.25;;;7.10;100.00
73700;BME280;62005;50.082;8.988;2024-03-22T04:28:57;101048.78;;;7.09;100.00
73700;BME280;62005;50.082;8.988;2024-03-22T04:31:23;101035.06;;;7.04;100.00
73700;BME280;62005;50.082;8.988;2024-03-22T04:33:49;101043.78;;;7.06;100.00
73700;BME280;62005;50.082;8.988;2024-03-22T04:36:15;101054.16;;;7.09;100.00
73700;BME280;62005;50.082;8.988;2024-03-22T04:38:40;101047.50;;;7.05;100.00
73700;BME280;62005;50.082;8.988;2024-03-22T04:41:06;101045.81;;;7.04;100.00
73700;BME280;62005;50.082;8.988;2024-03-22T04:43:31;101045.47;;;7.07;100.00
73700;BME280;62005;50.082;8.988;2024-03-22T04:45:57;101025.53;;;7.02;100.00
73700;BME280;62005;50.082;8.988;2024-03-22T04:48:23;101037.13;;;7.02;100.00
73700;BME280;62005;50.082;8.988;2024-03-22T04:50:52;101048.78;;;7.09;100.00
73700;BME280;62005;50.082;8.988;2024-03-22T04:53:21;101044.25;;;7.10;100.00
73700;BME280;62005;50.082;8.988;2024-03-22T04:55:48;101052.50;;;7.08;100.00
73700;BME280;62005;50.082;8.988;2024-03-22T04:58:15;101047.13;;;7.08;100.00
73700;BME280;62005;50.082;8.988;2024-03-22T05:00:42;101045.63;;;7.06;100.00
73700;BME280;62005;50.082;8.988;2024-03-22T05:03:07;101047.50;;;7.05;100.00
73700;BME280;62005;50.082;8.988;2024-03-22T05:05:34;101041.47;;;7.03;100.00
73700;BME280;62005;50.082;8.988;2024-03-22T05:08:00;101036.28;;;7.02;100.00
73700;BME280;62005;50.082;8.988;2024-03-22T05:10:26;101035.44;;;7.01;100.00
73700;BME280;62005;50.082;8.988;2024-03-22T05:12:51;101041.09;;;7.06;100.00
73700;BME280;62005;50.082;8.988;2024-03-22T05:15:17;101024.69;;;7.01;100.00
73700;BME280;62005;50.082;8.988;2024-03-22T05:17:42;101025.53;;;7.02;100.00
73700;BME280;62005;50.082;8.988;2024-03-22T05:20:09;101029.69;;;7.04;100.00
73700;BME280;62005;50.082;8.988;2024-03-22T05:22:37;101029.69;;;7.04;100.00
73700;BME280;62005;50.082;8.988;2024-03-22T05:25:02;101023.69;;;7.02;100.00
73700;BME280;62005;50.082;8.988;2024-03-22T05:27:30;101018.94;;;7.04;100.00
73700;BME280;62005;50.082;8.988;2024-03-22T05:29:55;100999.84;;;6.99;100.00
73700;BME280;62005;50.082;8.988;2024-03-22T05:32:21;101015.81;;;7.15;100.00
73700;BME280;62005;50.082;8.988;2024-03-22T05:34:46;101017.19;;;7.11;100.00
73700;BME280;62005;50.082;8.988;2024-03-22T05:37:12;101031.00;;;7.23;100.00
73700;BME280;62005;50.082;8.988;2024-03-22T05:39:38;101030.81;;;7.24;100.00
73700;BME280;62005;50.082;8.988;2024-03-22T05:42:04;101015.81;;;7.15;100.00
73700;BME280;62005;50.082;8.988;2024-03-22T05:44:30;101021.75;;;7.25;100.00
73700;BME280;62005;50.082;8.988;2024-03-22T05:46:55;101008.03;;;7.20;100.00
73700;BME280;62005;50.082;8.988;2024-03-22T05:49:21;101021.47;;;7.35;100.00
73700;BME280;62005;50.082;8.988;2024-03-22T05:51:47;101013.59;;;7.33;100.00
73700;BME280;62005;50.082;8.988;2024-03-22T05:54:12;101005.53;;;7.33;100.00
73700;BME280;62005;50.082;8.988;2024-03-22T05:56:38;100997.91;;;7.37;100.00
73700;BME280;62005;50.082;8.988;2024-03-22T05:59:03;101011.72;;;7.48;100.00
73700;BME280;62005;50.082;8.988;2024-03-22T06:01:29;101011.34;;;7.51;100.00
73700;BME280;62005;50.082;8.988;2024-03-22T06:03:54;101017.28;;;7.61;100.00
73700;BME280;62005;50.082;8.988;2024-03-22T06:06:20;101000.38;;;7.67;100.00
73700;BME280;62005;50.082;8.988;2024-03-22T06:08:50;100991.91;;;7.70;100.00
73700;BME280;62005;50.082;8.988;2024-03-22T06:11:18;100991.97;;;7.91;100.00
73700;BME280;62005;50.082;8.988;2024-03-22T06:13:43;100998.13;;;8.07;100.00
73700;BME280;62005;50.082;8.988;2024-03-22T06:16:09;100995.59;;;8.20;100.00
73700;BME280;62005;50.082;8.988;2024-03-22T06:18:34;100986.75;;;8.26;100.00
73700;BME280;62005;50.082;8.988;2024-03-22T06:21:00;100998.81;;;8.51;100.00
73700;BME280;62005;50.082;8.988;2024-03-22T06:23:25;100996.88;;;8.66;100.00
73700;BME280;62005;50.082;8.988;2024-03-22T06:25:55;100996.81;;;8.87;100.00
73700;BME280;62005;50.082;8.988;2024-03-22T06:28:21;100977.81;;;8.95;100.00
73700;BME280;62005;50.082;8.988;2024-03-22T06:30:47;100980.19;;;9.11;100.00
73700;BME280;62005;50.082;8.988;2024-03-22T06:33:13;100986.94;;;9.28;100.00
73700;BME280;62005;50.082;8.988;2024-03-22T06:35:38;100978.66;;;9.36;100.00
73700;BME280;62005;50.082;8.988;2024-03-22T06:38:04;100965.41;;;9.41;100.00
73700;BME280;62005;50.082;8.988;2024-03-22T06:40:30;100969.22;;;9.53;100.00
73700;BME280;62005;50.082;8.988;2024-03-22T06:42:56;100961.38;;;9.65;100.00
73700;BME280;62005;50.082;8.988;2024-03-22T06:45:22;100967.22;;;9.75;100.00
73700;BME280;62005;50.082;8.988;2024-03-22T06:47:47;100948.34;;;9.81;99.12
73700;BME280;62005;50.082;8.988;2024-03-22T06:50:13;100974.97;;;9.97;98.60
73700;BME280;62005;50.082;8.988;2024-03-22T06:52:38;100960.88;;;10.08;97.81
73700;BME280;62005;50.082;8.988;2024-03-22T06:55:04;100956.53;;;10.20;97.74
73700;BME280;62005;50.082;8.988;2024-03-22T06:57:30;100959.88;;;10.35;97.99
73700;BME280;62005;50.082;8.988;2024-03-22T06:59:56;100959.88;;;10.42;97.29
73700;BME280;62005;50.082;8.988;2024-03-22T07:02:21;100958.25;;;10.47;96.51
73700;BME280;62005;50.082;8.988;2024-03-22T07:04:47;100949.72;;;10.50;96.28
73700;BME280;62005;50.082;8.988;2024-03-22T07:07:12;100947.84;;;10.58;95.69
73700;BME280;62005;50.082;8.988;2024-03-22T07:09:38;100949.06;;;10.62;95.83
73700;BME280;62005;50.082;8.988;2024-03-22T07:12:04;100930.16;;;10.55;95.85
73700;BME280;62005;50.082;8.988;2024-03-22T07:14:30;100944.94;;;10.66;95.52
73700;BME280;62005;50.082;8.988;2024-03-22T07:16:55;100942.22;;;10.66;94.55
73700;BME280;62005;50.082;8.988;2024-03-22T07:19:21;100940.34;;;10.66;93.65
73700;BME280;62005;50.082;8.988;2024-03-22T07:21:47;100934.75;;;10.68;93.29
73700;BME280;62005;50.082;8.988;2024-03-22T07:24:13;100953.66;;;10.81;94.66
73700;BME280;62005;50.082;8.988;2024-03-22T07:26:38;100952.81;;;10.87;95.57
73700;BME280;62005;50.082;8.988;2024-03-22T07:29:04;100947.41;;;10.87;95.04
73700;BME280;62005;50.082;8.988;2024-03-22T07:31:29;100936.81;;;10.79;94.22
73700;BME280;62005;50.082;8.988;2024-03-22T07:33:55;100945.94;;;10.91;94.08
73700;BME280;62005;50.082;8.988;2024-03-22T07:36:21;100944.25;;;10.90;94.17
73700;BME280;62005;50.082;8.988;2024-03-22T07:38:47;100942.81;;;10.94;93.52
73700;BME280;62005;50.082;8.988;2024-03-22T07:41:14;100935.13;;;10.91;93.08
73700;BME280;62005;50.082;8.988;2024-03-22T07:43:39;100935.72;;;10.93;93.08
73700;BME280;62005;50.082;8.988;2024-03-22T07:46:05;100932.00;;;10.94;92.89
73700;BME280;62005;50.082;8.988;2024-03-22T07:48:30;100941.75;;;10.95;93.72
73700;BME280;62005;50.082;8.988;2024-03-22T07:51:00;100932.22;;;10.92;92.55
73700;BME280;62005;50.082;8.988;2024-03-22T07:53:26;100935.72;;;10.93;92.93
73700;BME280;62005;50.082;8.988;2024-03-22T07:55:52;100925.34;;;10.90;92.34
73700;BME280;62005;50.082;8.988;2024-03-22T07:58:17;100933.66;;;10.95;92.93
73700;BME280;62005;50.082;8.988;2024-03-22T08:00:43;100923.69;;;10.89;92.64
73700;BME280;62005;50.082;8.988;2024-03-22T08:03:14;100926.59;;;10.94;92.83
73700;BME280;62005;50.082;8.988;2024-03-22T08:05:40;100936.75;;;10.98;92.80
73700;BME280;62005;50.082;8.988;2024-03-22T08:08:06;100919.91;;;10.96;92.84
73700;BME280;62005;50.082;8.988;2024-03-22T08:10:32;100916.56;;;11.01;92.42
73700;BME280;62005;50.082;8.988;2024-03-22T08:12:57;100926.13;;;11.03;91.61
73700;BME280;62005;50.082;8.988;2024-03-22T08:15:23;100925.09;;;11.04;91.34
73700;BME280;62005;50.082;8.988;2024-03-22T08:17:48;100920.50;;;11.05;91.70
73700;BME280;62005;50.082;8.988;2024-03-22T08:20:14;100914.47;;;11.03;91.70
73700;BME280;62005;50.082;8.988;2024-03-22T08:22:39;100912.81;;;11.02;91.92
73700;BME280;62005;50.082;8.988;2024-03-22T08:25:06;100920.28;;;11.13;92.22
73700;BME280;62005;50.082;8.988;2024-03-22T08:27:33;100902.81;;;11.09;93.34
73700;BME280;62005;50.082;8.988;2024-03-22T08:29:59;100905.28;;;11.17;93.56
73700;BME280;62005;50.082;8.988;2024-03-22T08:32:25;100913.19;;;11.18;93.73
73700;BME280;62005;50.082;8.988;2024-03-22T08:34:50;100898.41;;;11.14;93.51
73700;BME280;62005;50.082;8.988;2024-03-22T08:37:16;100904.03;;;11.19;93.92
73700;BME280;62005;50.082;8.988;2024-03-22T08:39:41;100890.72;;;11.18;93.82
73700;BME280;62005;50.082;8.988;2024-03-22T08:42:07;100893.59;;;11.23;94.40
73700;BME280;62005;50.082;8.988;2024-03-22T08:44:34;100886.94;;;11.25;95.21
73700;BME280;62005;50.082;8.988;2024-03-22T08:46:59;100880.69;;;11.25;95.49
73700;BME280;62005;50.082;8.988;2024-03-22T08:49:25;100878.41;;;11.22;96.33
73700;BME280;62005;50.082;8.988;2024-03-22T08:51:50;100869.47;;;11.21;96.25
73700;BME280;62005;50.082;8.988;2024-03-22T08:54:16;100878.19;;;11.30;95.54
73700;BME280;62005;50.082;8.988;2024-03-22T08:56:41;100874.41;;;11.31;95.05
73700;BME280;62005;50.082;8.988;2024-03-22T08:59:07;100870.69;;;11.32;95.31
73700;BME280;62005;50.082;8.988;2024-03-22T09:01:32;100873.56;;;11.37;96.37
73700;BME280;62005;50.082;8.988;2024-03-22T09:03:58;100866.03;;;11.39;96.05
73700;BME280;62005;50.082;8.988;2024-03-22T09:06:23;100865.63;;;11.42;95.72
73700;BME280;62005;50.082;8.988;2024-03-22T09:08:49;100838.19;;;11.32;95.61
73700;BME280;62005;50.082;8.988;2024-03-22T09:11:14;100855.22;;;11.39;95.92
73700;BME280;62005;50.082;8.988;2024-03-22T09:13:40;100856.47;;;11.43;95.12
73700;BME280;62005;50.082;8.988;2024-03-22T09:16:05;100866.41;;;11.49;95.41
73700;BME280;62005;50.082;8.988;2024-03-22T09:18:31;100849.72;;;11.52;95.13
73700;BME280;62005;50.082;8.988;2024-03-22T09:20:56;100848.06;;;11.51;95.23
73700;BME280;62005;50.082;8.988;2024-03-22T09:23:22;100837.88;;;11.53;96.04
73700;BME280;62005;50.082;8.988;2024-03-22T09:25:48;100825.53;;;11.57;96.37
73700;BME280;62005;50.082;8.988;2024-03-22T09:28:14;100824.06;;;11.61;96.52
73700;BME280;62005;50.082;8.988;2024-03-22T09:30:40;100837.56;;;11.74;96.55
73700;BME280;62005;50.082;8.988;2024-03-22T09:33:06;100837.91;;;11.84;95.02
73700;BME280;62005;50.082;8.988;2024-03-22T09:35:33;100833.88;;;11.93;95.18
73700;BME280;62005;50.082;8.988;2024-03-22T09:37:59;100818.84;;;11.97;94.96
73700;BME280;62005;50.082;8.988;2024-03-22T09:40:24;100812.69;;;12.08;94.60
73700;BME280;62005;50.082;8.988;2024-03-22T09:42:52;100815.88;;;12.23;95.02
73700;BME280;62005;50.082;8.988;2024-03-22T09:45:18;100798.75;;;12.29;93.14
73700;BME280;62005;50.082;8.988;2024-03-22T09:47:45;100805.69;;;12.43;92.69
73700;BME280;62005;50.082;8.988;2024-03-22T09:50:12;100808.50;;;12.55;93.69
73700;BME280;62005;50.082;8.988;2024-03-22T09:52:38;100803.75;;;12.68;95.01
73700;BME280;62005;50.082;8.988;2024-03-22T09:55:05;100797.41;;;12.74;92.12
73700;BME280;62005;50.082;8.988;2024-03-22T09:57:31;100790.56;;;12.90;91.25
73700;BME280;62005;50.082;8.988;2024-03-22T09:59:59;100792.59;;;12.94;91.18
73700;BME280;62005;50.082;8.988;2024-03-22T10:02:25;100771.94;;;12.93;91.39
73700;BME280;62005;50.082;8.988;2024-03-22T10:04:52;100787.03;;;13.07;91.84
73700;BME280;62005;50.082;8.988;2024-03-22T10:07:17;100787.78;;;13.15;90.68
73700;BME280;62005;50.082;8.988;2024-03-22T10:09:43;100778.94;;;13.19;90.79
73700;BME280;62005;50.082;8.988;2024-03-22T10:12:09;100776.34;;;13.24;90.25
73700;BME280;62005;50.082;8.988;2024-03-22T10:14:35;100781.69;;;13.31;90.79
73700;BME280;62005;50.082;8.988;2024-03-22T10:17:02;100772.03;;;13.35;91.68
73700;BME280;62005;50.082;8.988;2024-03-22T10:19:28;100770.63;;;13.44;89.41
73700;BME280;62005;50.082;8.988;2024-03-22T10:22:01;100755.56;;;13.48;90.40
73700;BME280;62005;50.082;8.988;2024-03-22T10:24:27;100770.38;;;13.63;89.73
73700;BME280;62005;50.082;8.988;2024-03-22T10:26:54;100761.03;;;13.71;90.23
73700;BME280;62005;50.082;8.988;2024-03-22T10:29:20;100742.25;;;13.69;91.37
73700;BME280;62005;50.082;8.988;2024-03-22T10:31:47;100746.06;;;13.80;90.72
73700;BME280;62005;50.082;8.988;2024-03-22T10:34:13;100742.88;;;13.83;90.20
73700;BME280;62005;50.082;8.988;2024-03-22T10:36:39;100746.66;;;13.93;90.02
73700;BME280;62005;50.082;8.988;2024-03-22T10:39:05;100729.28;;;13.94;89.31
73700;BME280;62005;50.082;8.988;2024-03-22T10:41:31;100723.75;;;14.01;89.65
73700;BME280;62005;50.082;8.988;2024-03-22T10:43:57;100716.19;;;14.03;89.05
73700;BME280;62005;50.082;8.988;2024-03-22T10:46:29;100719.81;;;14.08;89.63
73700;BME280;62005;50.082;8.988;2024-03-22T10:48:55;100703.03;;;14.11;90.80
73700;BME280;62005;50.082;8.988;2024-03-22T10:51:21;100710.13;;;14.24;90.54
73700;BME280;62005;50.082;8.988;2024-03-22T10:53:49;100688.38;;;14.24;88.46
73700;BME280;62005;50.082;8.988;2024-03-22T10:56:16;100688.53;;;14.29;88.28
73700;BME280;62005;50.082;8.988;2024-03-22T10:58:42;100690.97;;;14.42;88.90
73700;BME280;62005;50.082;8.988;2024-03-22T11:01:24;100694.28;;;14.56;87.94
73700;BME280;62005;50.082;8.988;2024-03-22T11:03:50;100686.41;;;14.71;86.85
73700;BME280;62005;50.082;8.988;2024-03-22T11:06:19;100679.50;;;14.80;81.43
73700;BME280;62005;50.082;8.988;2024-03-22T11:08:51;100671.78;;;14.88;81.24
73700;BME280;62005;50.082;8.988;2024-03-22T11:11:18;100681.97;;;15.09;79.66
73700;BME280;62005;50.082;8.988;2024-03-22T11:13:47;100678.69;;;15.24;80.39
73700;BME280;62005;50.082;8.988;2024-03-22T11:16:15;100665.50;;;15.32;79.30
73700;BME280;62005;50.082;8.988;2024-03-22T11:18:43;100649.38;;;15.42;76.66
73700;BME280;62005;50.082;8.988;2024-03-22T11:21:08;100655.75;;;15.64;77.24
73700;BME280;62005;50.082;8.988;2024-03-22T11:23:37;100653.50;;;15.78;73.20
73700;BME280;62005;50.082;8.988;2024-03-22T11:26:03;100643.47;;;15.84;74.01
73700;BME280;62005;50.082;8.988;2024-03-22T11:28:30;100643.63;;;15.94;74.65
73700;BME280;62005;50.082;8.988;2024-03-22T11:30:56;100641.63;;;16.06;73.70
73700;BME280;62005;50.082;8.988;2024-03-22T11:33:21;100629.69;;;16.12;75.08
73700;BME280;62005;50.082;8.988;2024-03-22T11:35:47;100624.91;;;16.19;76.43
73700;BME280;62005;50.082;8.988;2024-03-22T11:38:15;100631.66;;;16.38;75.75
73700;BME280;62005;50.082;8.988;2024-03-22T11:40:42;100601.38;;;16.34;76.29
73700;BME280;62005;50.082;8.988;2024-03-22T11:43:09;100620.97;;;16.53;74.91
73700;BME280;62005;50.082;8.988;2024-03-22T11:45:35;100612.91;;;16.63;73.27
73700;BME280;62005;50.082;8.988;2024-03-22T11:48:02;100606.31;;;16.59;74.35
73700;BME280;62005;50.082;8.988;2024-03-22T11:50:28;100595.78;;;16.67;71.71
73700;BME280;62005;50.082;8.988;2024-03-22T11:52:54;100608.13;;;16.75;71.91
73700;BME280;62005;50.082;8.988;2024-03-22T11:55:21;100594.22;;;16.76;72.05
73700;BME280;62005;50.082;8.988;2024-03-22T11:57:49;100603.28;;;16.82;73.20
73700;BME280;62005;50.082;8.988;2024-03-22T12:00:16;100595.91;;;16.82;72.48
73700;BME280;62005;50.082;8.988;2024-03-22T12:02:42;100588.50;;;16.78;74.54
73700;BME280;62005;50.082;8.988;2024-03-22T12:05:09;100562.19;;;16.67;73.90
73700;BME280;62005;50.082;8.988;2024-03-22T12:07:35;100569.81;;;16.65;73.77
73700;BME280;62005;50.082;8.988;2024-03-22T12:10:00;100584.66;;;16.74;73.71
73700;BME280;62005;50.082;8.988;2024-03-22T12:12:26;100582.97;;;16.73;73.88
73700;BME280;62005;50.082;8.988;2024-03-22T12:14:52;100582.19;;;16.72;72.91
73700;BME280;62005;50.082;8.988;2024-03-22T12:17:18;100571.44;;;16.66;74.05
73700;BME280;62005;50.082;8.988;2024-03-22T12:19:44;100574.22;;;16.71;73.36
73700;BME280;62005;50.082;8.988;2024-03-22T12:22:09;100566.59;;;16.73;72.36
73700;BME280;62005;50.082;8.988;2024-03-22T12:24:36;100550.75;;;16.70;73.09
73700;BME280;62005;50.082;8.988;2024-03-22T12:27:01;100553.00;;;16.78;73.11
73700;BME280;62005;50.082;8.988;2024-03-22T12:29:27;100545.69;;;16.83;72.33
73700;BME280;62005;50.082;8.988;2024-03-22T12:31:53;100544.88;;;16.83;71.38
73700;BME280;62005;50.082;8.988;2024-03-22T12:34:18;100530.94;;;16.84;73.96
73700;BME280;62005;50.082;8.988;2024-03-22T12:36:44;100530.16;;;16.84;71.67
73700;BME280;62005;50.082;8.988;2024-03-22T12:39:09;100537.03;;;16.91;73.00
73700;BME280;62005;50.082;8.988;2024-03-22T12:41:35;100519.22;;;16.84;72.49
73700;BME280;62005;50.082;8.988;2024-03-22T12:44:00;100528.34;;;17.00;71.58
73700;BME280;62005;50.082;8.988;2024-03-22T12:46:26;100513.31;;;16.97;70.86